EW6462 Weather Reports


time (UTC)temp
C
wind
direction
speed
KPH
gust
KPH
rain 1hr
cm
rain 24hr
cm
rain mn
cm
humidity
%
barometer
mb
20190420062208 9 333 0.0 0.0 0.00 0.00 0.00 72 28.5
20190420045208 5 88 0.0 6.4 0.00 0.00 0.00 81 28.1
20190420044208 5 277 0.0 0.0 0.00 0.00 0.00 81 28.1
20190420042208 5 313 0.0 0.0 0.00 0.00 0.00 80 27.9
20190420034208 5 191 0.0 0.0 0.00 0.00 0.00 78 27.9
20190420033208 5 191 0.0 0.0 0.00 0.00 0.00 77 27.9
20190420030209 6 190 0.0 0.0 0.00 0.00 0.00 73 27.8
20190420024209 7 190 0.0 0.0 0.00 0.00 0.00 72 27.9
20190420021209 7 190 0.0 0.0 0.00 0.00 0.00 71 27.8
20190420020209 7 187 0.0 0.0 0.00 0.00 0.00 71 27.8
20190420015208 7 160 0.0 1.6 0.00 0.00 0.00 71 27.8
20190420012208 7 88 0.0 1.6 0.00 0.00 0.00 71 27.8
20190420005209 8 226 0.0 0.0 0.00 0.00 0.00 70 27.9
20190420004209 8 226 0.0 0.0 0.00 0.00 0.00 69 28.0
20190419234208 11 225 0.0 0.0 0.00 0.00 0.00 57 28.2
20190419232209 12 42 4.8 12.9 0.00 0.00 0.00 55 28.2
20190419230209 12 79 4.8 12.9 0.00 0.00 0.00 54 28.2
20190419225209 13 74 6.4 16.1 0.00 0.00 0.00 54 28.2
20190419223209 13 68 6.4 14.5 0.00 0.00 0.00 54 28.2
20190419221209 13 64 11.3 19.3 0.00 0.00 0.00 54 28.2
20190419215209 13 69 9.7 17.7 0.00 0.00 0.00 53 28.2
20190419212209 13 56 9.7 19.3 0.00 0.00 0.00 53 28.3
20190419210209 13 65 9.7 17.7 0.00 0.00 0.00 53 28.2
20190419204209 13 36 11.3 17.7 0.00 0.00 0.00 53 28.2
20190419201209 14 77 6.4 16.1 0.00 0.00 0.00 51 28.0
20190419192209 15 67 6.4 17.7 0.00 0.00 0.00 49 27.7
20190419191209 15 40 9.7 19.3 0.00 0.00 0.00 48 27.6
20190419181209 17 61 8.0 14.5 0.00 0.00 0.00 43 27.1
20190419170209 20 69 8.0 20.9 0.00 0.00 0.00 38 26.5
20190419164209 21 65 0.0 0.0 0.00 0.00 0.00 40 26.6
20190419161209 22 67 9.7 16.1 0.00 0.00 0.00 39 26.4
20190419153209 23 134 11.3 19.3 0.00 0.00 0.00 30 26.5
20190419144209 23 84 1.6 11.3 0.00 0.00 0.00 32 26.8
20190419143209 23 168 8.0 16.1 0.00 0.00 0.00 30 26.8
20190419134209 23 126 0.0 19.3 0.00 0.00 0.00 29 27.2
20190419133209 23 130 16.1 25.7 0.00 0.00 0.00 30 27.2
20190419131209 23 149 6.4 22.5 0.00 0.00 0.00 31 27.3
20190419130210 22 194 4.8 16.1 0.00 0.00 0.00 29 27.4
20190419122209 22 97 11.3 27.4 0.00 0.00 0.00 35 27.6
20190419120209 22 137 16.1 22.5 0.00 0.00 0.00 33 27.8
20190419113209 21 111 9.7 17.7 0.00 0.00 0.00 32 27.7
20190419112209 21 148 16.1 29.0 0.00 0.00 0.00 32 27.9
20190419103209 20 86 14.5 24.1 0.00 0.00 0.00 36 28.1
20190419102209 20 117 12.9 19.3 0.00 0.00 0.00 35 28.2
20190419095209 20 124 14.5 20.9 0.00 0.00 0.00 38 28.2
20190419091209 18 97 12.9 22.5 0.00 0.00 0.00 40 28.2
20190419090212 18 119 4.8 16.1 0.00 0.00 0.00 44 28.2
20190419085209 18 113 16.1 24.1 0.00 0.00 0.00 44 28.2
20190419084209 17 95 11.3 20.9 0.00 0.00 0.00 44 28.2
20190419081209 16 74 12.9 19.3 0.00 0.00 0.00 52 28.2
20190419075209 15 90 9.7 20.9 0.00 0.00 0.00 56 28.1
20190419073209 13 125 12.9 19.3 0.00 0.00 0.00 58 28.1
20190419072210 13 134 6.4 20.9 0.00 0.00 0.00 59 28.1
20190419070210 12 41 9.7 17.7 0.00 0.00 0.00 61 28.1
20190419065209 11 87 12.9 20.9 0.00 0.00 0.00 61 28.0
20190419064209 11 59 11.3 19.3 0.00 0.00 0.00 63 28.0